sensor_id;sensor_type;location;lat;lon;timestamp;P1;durP1;ratioP1;P2;durP2;ratioP2
12145;SDS011;6136;47.032;15.398;2023-02-28T00:01:27;5.97;;;4.50;;
12145;SDS011;6136;47.032;15.398;2023-02-28T00:03:56;5.67;;;5.07;;
12145;SDS011;6136;47.032;15.398;2023-02-28T00:06:25;7.17;;;5.17;;
12145;SDS011;6136;47.032;15.398;2023-02-28T00:08:53;8.00;;;5.50;;
12145;SDS011;6136;47.032;15.398;2023-02-28T00:11:22;7.17;;;5.00;;
12145;SDS011;6136;47.032;15.398;2023-02-28T00:13:52;9.67;;;6.47;;
12145;SDS011;6136;47.032;15.398;2023-02-28T00:16:21;9.57;;;5.90;;
12145;SDS011;6136;47.032;15.398;2023-02-28T00:18:50;6.80;;;5.47;;
12145;SDS011;6136;47.032;15.398;2023-02-28T00:21:19;8.40;;;5.43;;
12145;SDS011;6136;47.032;15.398;2023-02-28T00:23:47;5.73;;;4.90;;
12145;SDS011;6136;47.032;15.398;2023-02-28T00:26:15;4.83;;;4.03;;
12145;SDS011;6136;47.032;15.398;2023-02-28T00:28:47;5.67;;;3.97;;
12145;SDS011;6136;47.032;15.398;2023-02-28T00:31:17;6.97;;;4.80;;
12145;SDS011;6136;47.032;15.398;2023-02-28T00:33:47;8.43;;;4.63;;
12145;SDS011;6136;47.032;15.398;2023-02-28T00:36:15;5.93;;;4.27;;
12145;SDS011;6136;47.032;15.398;2023-02-28T00:38:43;5.50;;;4.40;;
12145;SDS011;6136;47.032;15.398;2023-02-28T00:41:11;5.83;;;4.30;;
12145;SDS011;6136;47.032;15.398;2023-02-28T00:43:39;4.67;;;4.10;;
12145;SDS011;6136;47.032;15.398;2023-02-28T00:46:10;4.87;;;4.27;;
12145;SDS011;6136;47.032;15.398;2023-02-28T00:48:39;4.23;;;3.83;;
12145;SDS011;6136;47.032;15.398;2023-02-28T00:51:07;6.20;;;4.80;;
12145;SDS011;6136;47.032;15.398;2023-02-28T00:53:35;9.37;;;5.07;;
12145;SDS011;6136;47.032;15.398;2023-02-28T00:56:04;5.90;;;4.70;;
12145;SDS011;6136;47.032;15.398;2023-02-28T00:58:32;5.03;;;3.93;;
12145;SDS011;6136;47.032;15.398;2023-02-28T01:01:01;5.30;;;4.30;;
12145;SDS011;6136;47.032;15.398;2023-02-28T01:03:30;6.47;;;4.37;;
12145;SDS011;6136;47.032;15.398;2023-02-28T01:05:59;7.20;;;5.20;;
12145;SDS011;6136;47.032;15.398;2023-02-28T01:08:27;5.57;;;4.40;;
12145;SDS011;6136;47.032;15.398;2023-02-28T01:10:55;7.90;;;5.03;;
12145;SDS011;6136;47.032;15.398;2023-02-28T01:13:24;5.80;;;3.93;;
12145;SDS011;6136;47.032;15.398;2023-02-28T01:15:52;7.77;;;4.33;;
12145;SDS011;6136;47.032;15.398;2023-02-28T01:18:23;5.73;;;4.30;;
12145;SDS011;6136;47.032;15.398;2023-02-28T01:20:52;6.03;;;4.10;;
12145;SDS011;6136;47.032;15.398;2023-02-28T01:23:22;5.23;;;4.20;;
12145;SDS011;6136;47.032;15.398;2023-02-28T01:25:51;6.57;;;4.87;;
12145;SDS011;6136;47.032;15.398;2023-02-28T01:28:20;8.27;;;4.87;;
12145;SDS011;6136;47.032;15.398;2023-02-28T01:30:49;7.43;;;4.30;;
12145;SDS011;6136;47.032;15.398;2023-02-28T01:33:18;4.27;;;3.87;;
12145;SDS011;6136;47.032;15.398;2023-02-28T01:40:31;5.27;;;4.43;;
12145;SDS011;6136;47.032;15.398;2023-02-28T01:42:59;5.73;;;4.80;;
12145;SDS011;6136;47.032;15.398;2023-02-28T01:45:28;4.30;;;3.90;;
12145;SDS011;6136;47.032;15.398;2023-02-28T01:47:58;6.17;;;4.50;;
12145;SDS011;6136;47.032;15.398;2023-02-28T01:50:31;5.17;;;4.47;;
12145;SDS011;6136;47.032;15.398;2023-02-28T01:53:09;6.10;;;3.53;;
12145;SDS011;6136;47.032;15.398;2023-02-28T01:55:42;5.13;;;4.40;;
12145;SDS011;6136;47.032;15.398;2023-02-28T01:58:14;5.70;;;4.37;;
12145;SDS011;6136;47.032;15.398;2023-02-28T02:00:43;5.03;;;4.03;;
12145;SDS011;6136;47.032;15.398;2023-02-28T02:03:13;5.50;;;4.80;;
12145;SDS011;6136;47.032;15.398;2023-02-28T02:05:45;5.87;;;4.37;;
12145;SDS011;6136;47.032;15.398;2023-02-28T02:08:15;4.67;;;4.20;;
12145;SDS011;6136;47.032;15.398;2023-02-28T02:10:48;4.47;;;3.83;;
12145;SDS011;6136;47.032;15.398;2023-02-28T02:13:34;4.50;;;4.10;;
12145;SDS011;6136;47.032;15.398;2023-02-28T02:16:16;5.30;;;4.47;;
12145;SDS011;6136;47.032;15.398;2023-02-28T02:18:52;4.80;;;3.67;;
12145;SDS011;6136;47.032;15.398;2023-02-28T02:21:31;4.50;;;4.10;;
12145;SDS011;6136;47.032;15.398;2023-02-28T02:27:27;7.17;;;4.50;;
12145;SDS011;6136;47.032;15.398;2023-02-28T02:36:08;4.90;;;4.40;;
12145;SDS011;6136;47.032;15.398;2023-02-28T02:38:43;5.23;;;4.30;;
12145;SDS011;6136;47.032;15.398;2023-02-28T02:41:17;6.37;;;4.33;;
12145;SDS011;6136;47.032;15.398;2023-02-28T02:43:50;7.03;;;4.43;;
12145;SDS011;6136;47.032;15.398;2023-02-28T02:46:23;6.13;;;4.90;;
12145;SDS011;6136;47.032;15.398;2023-02-28T02:48:57;6.03;;;4.83;;
12145;SDS011;6136;47.032;15.398;2023-02-28T02:51:31;4.93;;;4.40;;
12145;SDS011;6136;47.032;15.398;2023-02-28T02:54:02;6.93;;;3.90;;
12145;SDS011;6136;47.032;15.398;2023-02-28T02:56:34;4.00;;;3.53;;
12145;SDS011;6136;47.032;15.398;2023-02-28T02:59:04;4.60;;;3.90;;
12145;SDS011;6136;47.032;15.398;2023-02-28T03:01:37;4.13;;;3.73;;
12145;SDS011;6136;47.032;15.398;2023-02-28T03:04:09;4.60;;;4.20;;
12145;SDS011;6136;47.032;15.398;2023-02-28T03:06:41;5.03;;;3.93;;
12145;SDS011;6136;47.032;15.398;2023-02-28T03:09:09;4.33;;;3.77;;
12145;SDS011;6136;47.032;15.398;2023-02-28T03:11:38;5.97;;;4.17;;
12145;SDS011;6136;47.032;15.398;2023-02-28T03:14:14;4.17;;;3.77;;
12145;SDS011;6136;47.032;15.398;2023-02-28T03:17:03;5.87;;;3.90;;
12145;SDS011;6136;47.032;15.398;2023-02-28T03:19:47;5.10;;;4.60;;
12145;SDS011;6136;47.032;15.398;2023-02-28T03:22:36;9.67;;;4.67;;
12145;SDS011;6136;47.032;15.398;2023-02-28T03:25:17;7.67;;;4.77;;
12145;SDS011;6136;47.032;15.398;2023-02-28T03:27:52;6.30;;;5.07;;
12145;SDS011;6136;47.032;15.398;2023-02-28T03:30:29;8.00;;;4.80;;
12145;SDS011;6136;47.032;15.398;2023-02-28T03:33:05;5.53;;;4.70;;
12145;SDS011;6136;47.032;15.398;2023-02-28T03:35:37;5.67;;;5.00;;
12145;SDS011;6136;47.032;15.398;2023-02-28T03:38:12;5.17;;;4.20;;
12145;SDS011;6136;47.032;15.398;2023-02-28T03:40:47;7.80;;;4.47;;
12145;SDS011;6136;47.032;15.398;2023-02-28T03:43:22;5.87;;;4.40;;
12145;SDS011;6136;47.032;15.398;2023-02-28T03:45:54;7.30;;;4.73;;
12145;SDS011;6136;47.032;15.398;2023-02-28T03:48:25;5.80;;;4.80;;
12145;SDS011;6136;47.032;15.398;2023-02-28T03:50:58;11.03;;;6.77;;
12145;SDS011;6136;47.032;15.398;2023-02-28T03:53:30;8.40;;;5.90;;
12145;SDS011;6136;47.032;15.398;2023-02-28T03:56:04;9.20;;;6.17;;
12145;SDS011;6136;47.032;15.398;2023-02-28T03:58:39;10.23;;;5.73;;
12145;SDS011;6136;47.032;15.398;2023-02-28T04:01:15;8.87;;;5.80;;
12145;SDS011;6136;47.032;15.398;2023-02-28T04:03:49;9.07;;;5.47;;
12145;SDS011;6136;47.032;15.398;2023-02-28T04:06:18;7.23;;;5.53;;
12145;SDS011;6136;47.032;15.398;2023-02-28T04:08:49;8.07;;;5.43;;
12145;SDS011;6136;47.032;15.398;2023-02-28T04:11:19;7.00;;;5.33;;
12145;SDS011;6136;47.032;15.398;2023-02-28T04:13:50;6.67;;;5.03;;
12145;SDS011;6136;47.032;15.398;2023-02-28T04:16:18;7.90;;;4.53;;
12145;SDS011;6136;47.032;15.398;2023-02-28T04:19:01;9.53;;;5.33;;
12145;SDS011;6136;47.032;15.398;2023-02-28T04:21:32;5.93;;;5.07;;
12145;SDS011;6136;47.032;15.398;2023-02-28T04:24:03;5.57;;;5.07;;
12145;SDS011;6136;47.032;15.398;2023-02-28T04:26:33;6.50;;;4.93;;
12145;SDS011;6136;47.032;15.398;2023-02-28T04:29:03;5.83;;;4.80;;
12145;SDS011;6136;47.032;15.398;2023-02-28T04:31:33;4.93;;;4.43;;
12145;SDS011;6136;47.032;15.398;2023-02-28T04:34:02;5.80;;;4.47;;
12145;SDS011;6136;47.032;15.398;2023-02-28T04:36:31;6.70;;;4.90;;
12145;SDS011;6136;47.032;15.398;2023-02-28T04:38:59;8.70;;;5.37;;
12145;SDS011;6136;47.032;15.398;2023-02-28T04:41:29;5.57;;;4.67;;
12145;SDS011;6136;47.032;15.398;2023-02-28T04:43:58;6.03;;;5.07;;
12145;SDS011;6136;47.032;15.398;2023-02-28T04:46:27;7.07;;;5.77;;
12145;SDS011;6136;47.032;15.398;2023-02-28T04:48:55;6.13;;;5.20;;
12145;SDS011;6136;47.032;15.398;2023-02-28T04:51:23;7.23;;;5.53;;
12145;SDS011;6136;47.032;15.398;2023-02-28T04:53:51;8.03;;;5.40;;
12145;SDS011;6136;47.032;15.398;2023-02-28T04:56:20;7.43;;;5.50;;
12145;SDS011;6136;47.032;15.398;2023-02-28T04:58:50;7.33;;;5.13;;
12145;SDS011;6136;47.032;15.398;2023-02-28T05:01:20;6.23;;;5.03;;
12145;SDS011;6136;47.032;15.398;2023-02-28T05:03:51;6.67;;;5.60;;
12145;SDS011;6136;47.032;15.398;2023-02-28T05:06:21;8.27;;;5.40;;
12145;SDS011;6136;47.032;15.398;2023-02-28T05:08:50;6.47;;;5.20;;
12145;SDS011;6136;47.032;15.398;2023-02-28T05:11:20;7.70;;;5.57;;
12145;SDS011;6136;47.032;15.398;2023-02-28T05:13:51;9.07;;;5.30;;
12145;SDS011;6136;47.032;15.398;2023-02-28T05:16:20;6.77;;;4.93;;
12145;SDS011;6136;47.032;15.398;2023-02-28T05:18:49;7.13;;;5.47;;
12145;SDS011;6136;47.032;15.398;2023-02-28T05:21:25;7.07;;;5.60;;
12145;SDS011;6136;47.032;15.398;2023-02-28T05:23:56;8.13;;;5.47;;
12145;SDS011;6136;47.032;15.398;2023-02-28T05:26:25;7.27;;;5.60;;
12145;SDS011;6136;47.032;15.398;2023-02-28T05:28:55;11.03;;;6.47;;
12145;SDS011;6136;47.032;15.398;2023-02-28T05:31:24;10.70;;;6.03;;
12145;SDS011;6136;47.032;15.398;2023-02-28T05:33:52;11.00;;;5.47;;
12145;SDS011;6136;47.032;15.398;2023-02-28T05:36:21;7.97;;;6.07;;
12145;SDS011;6136;47.032;15.398;2023-02-28T05:38:49;12.47;;;6.87;;
12145;SDS011;6136;47.032;15.398;2023-02-28T05:41:18;8.93;;;6.00;;
12145;SDS011;6136;47.032;15.398;2023-02-28T05:43:47;10.30;;;6.30;;
12145;SDS011;6136;47.032;15.398;2023-02-28T05:46:17;8.00;;;6.03;;
12145;SDS011;6136;47.032;15.398;2023-02-28T05:48:46;10.70;;;5.83;;
12145;SDS011;6136;47.032;15.398;2023-02-28T05:51:15;9.07;;;5.93;;
12145;SDS011;6136;47.032;15.398;2023-02-28T05:53:44;10.80;;;7.10;;
12145;SDS011;6136;47.032;15.398;2023-02-28T05:56:12;13.00;;;7.07;;
12145;SDS011;6136;47.032;15.398;2023-02-28T05:58:40;13.20;;;6.07;;
12145;SDS011;6136;47.032;15.398;2023-02-28T06:01:31;8.77;;;6.77;;
12145;SDS011;6136;47.032;15.398;2023-02-28T06:04:01;8.57;;;6.13;;
12145;SDS011;6136;47.032;15.398;2023-02-28T06:06:30;12.07;;;6.43;;
12145;SDS011;6136;47.032;15.398;2023-02-28T06:09:02;8.03;;;6.07;;
12145;SDS011;6136;47.032;15.398;2023-02-28T06:11:31;9.73;;;6.43;;
12145;SDS011;6136;47.032;15.398;2023-02-28T06:14:00;10.93;;;6.17;;
12145;SDS011;6136;47.032;15.398;2023-02-28T06:16:31;10.83;;;6.43;;
12145;SDS011;6136;47.032;15.398;2023-02-28T06:19:02;8.53;;;6.47;;
12145;SDS011;6136;47.032;15.398;2023-02-28T06:21:31;9.40;;;6.23;;
12145;SDS011;6136;47.032;15.398;2023-02-28T06:23:59;10.27;;;6.30;;
12145;SDS011;6136;47.032;15.398;2023-02-28T06:26:28;9.83;;;6.67;;
12145;SDS011;6136;47.032;15.398;2023-02-28T06:28:56;9.13;;;6.03;;
12145;SDS011;6136;47.032;15.398;2023-02-28T06:31:25;8.27;;;6.27;;
12145;SDS011;6136;47.032;15.398;2023-02-28T06:33:57;8.23;;;5.90;;
12145;SDS011;6136;47.032;15.398;2023-02-28T06:36:25;8.57;;;6.07;;
12145;SDS011;6136;47.032;15.398;2023-02-28T06:38:53;8.63;;;5.63;;
12145;SDS011;6136;47.032;15.398;2023-02-28T06:41:23;9.00;;;6.63;;
12145;SDS011;6136;47.032;15.398;2023-02-28T06:43:52;12.17;;;6.77;;
12145;SDS011;6136;47.032;15.398;2023-02-28T06:46:21;7.97;;;6.20;;
12145;SDS011;6136;47.032;15.398;2023-02-28T06:48:49;10.30;;;6.97;;
12145;SDS011;6136;47.032;15.398;2023-02-28T06:51:19;9.80;;;6.97;;
12145;SDS011;6136;47.032;15.398;2023-02-28T06:53:48;10.83;;;6.57;;
12145;SDS011;6136;47.032;15.398;2023-02-28T06:56:17;9.57;;;6.40;;
12145;SDS011;6136;47.032;15.398;2023-02-28T06:58:47;9.13;;;6.60;;
12145;SDS011;6136;47.032;15.398;2023-02-28T07:01:16;10.00;;;6.90;;
12145;SDS011;6136;47.032;15.398;2023-02-28T07:03:45;9.50;;;7.10;;
12145;SDS011;6136;47.032;15.398;2023-02-28T07:06:20;10.30;;;7.20;;
12145;SDS011;6136;47.032;15.398;2023-02-28T07:08:49;7.50;;;6.23;;
12145;SDS011;6136;47.032;15.398;2023-02-28T07:11:18;10.80;;;7.13;;
12145;SDS011;6136;47.032;15.398;2023-02-28T07:13:47;10.53;;;7.20;;
12145;SDS011;6136;47.032;15.398;2023-02-28T07:16:15;12.07;;;7.37;;
12145;SDS011;6136;47.032;15.398;2023-02-28T07:18:44;11.63;;;7.20;;
12145;SDS011;6136;47.032;15.398;2023-02-28T07:21:12;11.53;;;7.23;;
12145;SDS011;6136;47.032;15.398;2023-02-28T07:23:42;10.80;;;7.40;;
12145;SDS011;6136;47.032;15.398;2023-02-28T07:26:11;10.87;;;6.60;;
12145;SDS011;6136;47.032;15.398;2023-02-28T07:28:41;11.40;;;7.67;;
12145;SDS011;6136;47.032;15.398;2023-02-28T07:31:13;14.30;;;8.70;;
12145;SDS011;6136;47.032;15.398;2023-02-28T07:33:43;10.17;;;6.60;;
12145;SDS011;6136;47.032;15.398;2023-02-28T07:36:12;12.70;;;7.57;;
12145;SDS011;6136;47.032;15.398;2023-02-28T07:38:45;12.27;;;7.70;;
12145;SDS011;6136;47.032;15.398;2023-02-28T07:41:14;11.67;;;7.47;;
12145;SDS011;6136;47.032;15.398;2023-02-28T07:43:43;13.47;;;7.73;;
12145;SDS011;6136;47.032;15.398;2023-02-28T07:46:12;11.47;;;7.47;;
12145;SDS011;6136;47.032;15.398;2023-02-28T07:48:42;10.03;;;7.00;;
12145;SDS011;6136;47.032;15.398;2023-02-28T07:51:12;9.63;;;7.30;;
12145;SDS011;6136;47.032;15.398;2023-02-28T07:53:40;12.07;;;7.57;;
12145;SDS011;6136;47.032;15.398;2023-02-28T07:56:10;11.10;;;8.07;;
12145;SDS011;6136;47.032;15.398;2023-02-28T07:58:38;10.07;;;6.90;;
12145;SDS011;6136;47.032;15.398;2023-02-28T08:01:06;11.50;;;6.90;;
12145;SDS011;6136;47.032;15.398;2023-02-28T08:03:36;12.47;;;7.33;;
12145;SDS011;6136;47.032;15.398;2023-02-28T08:06:07;11.87;;;7.07;;
12145;SDS011;6136;47.032;15.398;2023-02-28T08:08:42;9.77;;;7.10;;
12145;SDS011;6136;47.032;15.398;2023-02-28T08:11:12;14.47;;;7.20;;
12145;SDS011;6136;47.032;15.398;2023-02-28T08:13:40;13.17;;;7.87;;
12145;SDS011;6136;47.032;15.398;2023-02-28T08:16:10;11.87;;;7.63;;
12145;SDS011;6136;47.032;15.398;2023-02-28T08:18:41;11.83;;;8.10;;
12145;SDS011;6136;47.032;15.398;2023-02-28T08:21:10;11.93;;;7.07;;
12145;SDS011;6136;47.032;15.398;2023-02-28T08:23:39;10.57;;;7.30;;
12145;SDS011;6136;47.032;15.398;2023-02-28T08:26:07;13.10;;;8.20;;
12145;SDS011;6136;47.032;15.398;2023-02-28T08:28:37;10.83;;;7.17;;
12145;SDS011;6136;47.032;15.398;2023-02-28T08:31:09;12.07;;;6.73;;
12145;SDS011;6136;47.032;15.398;2023-02-28T08:33:39;15.33;;;7.23;;
12145;SDS011;6136;47.032;15.398;2023-02-28T08:36:07;9.63;;;6.57;;
12145;SDS011;6136;47.032;15.398;2023-02-28T08:38:36;8.13;;;7.27;;
12145;SDS011;6136;47.032;15.398;2023-02-28T08:41:06;10.27;;;7.20;;
12145;SDS011;6136;47.032;15.398;2023-02-28T08:43:37;11.73;;;8.03;;
12145;SDS011;6136;47.032;15.398;2023-02-28T08:46:05;12.20;;;8.03;;
12145;SDS011;6136;47.032;15.398;2023-02-28T08:48:35;11.47;;;7.57;;
12145;SDS011;6136;47.032;15.398;2023-02-28T08:51:06;11.47;;;7.67;;
12145;SDS011;6136;47.032;15.398;2023-02-28T08:53:36;10.30;;;7.83;;
12145;SDS011;6136;47.032;15.398;2023-02-28T08:56:06;9.97;;;7.30;;
12145;SDS011;6136;47.032;15.398;2023-02-28T08:58:37;10.27;;;7.23;;
12145;SDS011;6136;47.032;15.398;2023-02-28T09:01:09;14.30;;;8.07;;
12145;SDS011;6136;47.032;15.398;2023-02-28T09:03:40;12.07;;;8.17;;
12145;SDS011;6136;47.032;15.398;2023-02-28T09:06:09;14.30;;;8.10;;
12145;SDS011;6136;47.032;15.398;2023-02-28T09:08:38;13.77;;;7.40;;
12145;SDS011;6136;47.032;15.398;2023-02-28T09:11:07;11.00;;;7.37;;
12145;SDS011;6136;47.032;15.398;2023-02-28T09:13:38;14.17;;;7.70;;
12145;SDS011;6136;47.032;15.398;2023-02-28T09:16:07;11.33;;;7.77;;
12145;SDS011;6136;47.032;15.398;2023-02-28T09:18:38;10.23;;;7.63;;
12145;SDS011;6136;47.032;15.398;2023-02-28T09:21:07;11.57;;;8.43;;
12145;SDS011;6136;47.032;15.398;2023-02-28T09:23:36;11.70;;;7.37;;
12145;SDS011;6136;47.032;15.398;2023-02-28T09:26:05;11.37;;;7.97;;
12145;SDS011;6136;47.032;15.398;2023-02-28T09:28:34;14.33;;;7.63;;
12145;SDS011;6136;47.032;15.398;2023-02-28T09:31:04;14.57;;;7.90;;
12145;SDS011;6136;47.032;15.398;2023-02-28T09:33:32;11.60;;;7.40;;
12145;SDS011;6136;47.032;15.398;2023-02-28T09:36:02;14.13;;;8.10;;
12145;SDS011;6136;47.032;15.398;2023-02-28T09:38:31;14.10;;;8.77;;
12145;SDS011;6136;47.032;15.398;2023-02-28T09:41:00;13.10;;;8.60;;
12145;SDS011;6136;47.032;15.398;2023-02-28T09:43:32;10.47;;;7.40;;
12145;SDS011;6136;47.032;15.398;2023-02-28T09:46:08;12.80;;;7.30;;
12145;SDS011;6136;47.032;15.398;2023-02-28T09:48:45;14.30;;;9.00;;
12145;SDS011;6136;47.032;15.398;2023-02-28T09:51:22;11.23;;;8.23;;
12145;SDS011;6136;47.032;15.398;2023-02-28T09:53:57;14.00;;;9.07;;
12145;SDS011;6136;47.032;15.398;2023-02-28T09:56:28;10.73;;;7.57;;
12145;SDS011;6136;47.032;15.398;2023-02-28T09:59:01;12.17;;;7.93;;
12145;SDS011;6136;47.032;15.398;2023-02-28T10:01:36;12.03;;;7.83;;
12145;SDS011;6136;47.032;15.398;2023-02-28T10:04:12;9.43;;;7.37;;
12145;SDS011;6136;47.032;15.398;2023-02-28T10:06:51;10.37;;;7.80;;
12145;SDS011;6136;47.032;15.398;2023-02-28T10:09:21;8.57;;;7.03;;
12145;SDS011;6136;47.032;15.398;2023-02-28T10:11:53;11.97;;;7.87;;
12145;SDS011;6136;47.032;15.398;2023-02-28T10:14:26;11.30;;;7.73;;
12145;SDS011;6136;47.032;15.398;2023-02-28T10:16:58;10.43;;;7.77;;
12145;SDS011;6136;47.032;15.398;2023-02-28T10:19:30;11.30;;;7.30;;
12145;SDS011;6136;47.032;15.398;2023-02-28T10:22:03;10.90;;;7.90;;
12145;SDS011;6136;47.032;15.398;2023-02-28T10:24:37;11.70;;;7.57;;
12145;SDS011;6136;47.032;15.398;2023-02-28T10:27:12;14.07;;;7.40;;
12145;SDS011;6136;47.032;15.398;2023-02-28T10:29:43;13.47;;;7.80;;
12145;SDS011;6136;47.032;15.398;2023-02-28T10:32:15;11.70;;;7.67;;
12145;SDS011;6136;47.032;15.398;2023-02-28T10:34:45;11.83;;;8.30;;
12145;SDS011;6136;47.032;15.398;2023-02-28T10:37:20;11.70;;;7.80;;
12145;SDS011;6136;47.032;15.398;2023-02-28T10:39:48;10.63;;;7.63;;
12145;SDS011;6136;47.032;15.398;2023-02-28T10:42:21;11.83;;;7.43;;
12145;SDS011;6136;47.032;15.398;2023-02-28T10:47:48;12.43;;;8.60;;
12145;SDS011;6136;47.032;15.398;2023-02-28T10:50:28;12.10;;;8.27;;
12145;SDS011;6136;47.032;15.398;2023-02-28T10:53:15;13.67;;;8.13;;
12145;SDS011;6136;47.032;15.398;2023-02-28T10:55:56;13.87;;;7.87;;
12145;SDS011;6136;47.032;15.398;2023-02-28T10:58:26;15.27;;;8.30;;
12145;SDS011;6136;47.032;15.398;2023-02-28T11:00:57;12.60;;;8.27;;
12145;SDS011;6136;47.032;15.398;2023-02-28T11:03:32;12.50;;;7.83;;
12145;SDS011;6136;47.032;15.398;2023-02-28T11:06:05;11.70;;;8.30;;
12145;SDS011;6136;47.032;15.398;2023-02-28T11:08:42;11.30;;;7.63;;
12145;SDS011;6136;47.032;15.398;2023-02-28T11:11:13;12.83;;;8.00;;
12145;SDS011;6136;47.032;15.398;2023-02-28T11:13:43;12.63;;;8.10;;
12145;SDS011;6136;47.032;15.398;2023-02-28T11:16:13;13.07;;;8.70;;
12145;SDS011;6136;47.032;15.398;2023-02-28T11:18:46;19.93;;;8.43;;
12145;SDS011;6136;47.032;15.398;2023-02-28T11:21:18;14.30;;;9.00;;
12145;SDS011;6136;47.032;15.398;2023-02-28T11:23:51;13.53;;;8.80;;
12145;SDS011;6136;47.032;15.398;2023-02-28T11:26:35;14.30;;;8.93;;
12145;SDS011;6136;47.032;15.398;2023-02-28T11:29:09;14.73;;;9.13;;
12145;SDS011;6136;47.032;15.398;2023-02-28T11:31:43;13.47;;;8.20;;
12145;SDS011;6136;47.032;15.398;2023-02-28T11:34:29;11.30;;;8.20;;
12145;SDS011;6136;47.032;15.398;2023-02-28T11:36:59;13.00;;;8.50;;
12145;SDS011;6136;47.032;15.398;2023-02-28T11:39:31;14.70;;;9.10;;
12145;SDS011;6136;47.032;15.398;2023-02-28T11:42:13;14.23;;;9.13;;
12145;SDS011;6136;47.032;15.398;2023-02-28T11:44:58;17.07;;;8.07;;
12145;SDS011;6136;47.032;15.398;2023-02-28T11:47:38;13.03;;;8.87;;
12145;SDS011;6136;47.032;15.398;2023-02-28T11:50:26;12.00;;;8.40;;
12145;SDS011;6136;47.032;15.398;2023-02-28T11:53:14;13.30;;;8.60;;
12145;SDS011;6136;47.032;15.398;2023-02-28T11:55:51;16.23;;;9.37;;
12145;SDS011;6136;47.032;15.398;2023-02-28T11:58:37;16.40;;;8.63;;
12145;SDS011;6136;47.032;15.398;2023-02-28T12:01:20;11.33;;;7.73;;
12145;SDS011;6136;47.032;15.398;2023-02-28T12:04:03;15.10;;;8.80;;
12145;SDS011;6136;47.032;15.398;2023-02-28T12:06:43;14.27;;;8.73;;
12145;SDS011;6136;47.032;15.398;2023-02-28T12:09:28;16.77;;;9.37;;
12145;SDS011;6136;47.032;15.398;2023-02-28T12:12:15;11.43;;;8.17;;
12145;SDS011;6136;47.032;15.398;2023-02-28T12:14:57;13.03;;;9.23;;
12145;SDS011;6136;47.032;15.398;2023-02-28T12:17:49;15.73;;;9.03;;
12145;SDS011;6136;47.032;15.398;2023-02-28T12:20:26;17.23;;;9.70;;
12145;SDS011;6136;47.032;15.398;2023-02-28T12:23:08;14.93;;;9.43;;
12145;SDS011;6136;47.032;15.398;2023-02-28T12:25:55;14.23;;;9.23;;
12145;SDS011;6136;47.032;15.398;2023-02-28T12:28:31;18.03;;;9.20;;
12145;SDS011;6136;47.032;15.398;2023-02-28T12:31:04;14.37;;;8.53;;
12145;SDS011;6136;47.032;15.398;2023-02-28T12:33:42;14.67;;;9.13;;
12145;SDS011;6136;47.032;15.398;2023-02-28T12:36:14;15.77;;;9.27;;
12145;SDS011;6136;47.032;15.398;2023-02-28T12:38:47;18.20;;;8.83;;
12145;SDS011;6136;47.032;15.398;2023-02-28T12:41:22;14.10;;;8.47;;
12145;SDS011;6136;47.032;15.398;2023-02-28T12:43:57;14.70;;;8.33;;
12145;SDS011;6136;47.032;15.398;2023-02-28T12:46:30;17.70;;;9.13;;
12145;SDS011;6136;47.032;15.398;2023-02-28T12:49:04;13.40;;;8.27;;
12145;SDS011;6136;47.032;15.398;2023-02-28T12:51:36;14.43;;;7.80;;
12145;SDS011;6136;47.032;15.398;2023-02-28T12:54:09;14.80;;;9.00;;
12145;SDS011;6136;47.032;15.398;2023-02-28T12:56:45;15.67;;;9.13;;
12145;SDS011;6136;47.032;15.398;2023-02-28T12:59:23;13.27;;;7.73;;
12145;SDS011;6136;47.032;15.398;2023-02-28T13:11:32;13.27;;;8.53;;
12145;SDS011;6136;47.032;15.398;2023-02-28T13:14:15;12.10;;;8.30;;
12145;SDS011;6136;47.032;15.398;2023-02-28T13:17:02;17.97;;;9.27;;
12145;SDS011;6136;47.032;15.398;2023-02-28T13:19:39;13.53;;;8.63;;
12145;SDS011;6136;47.032;15.398;2023-02-28T13:22:16;18.10;;;9.80;;
12145;SDS011;6136;47.032;15.398;2023-02-28T13:24:46;19.80;;;9.27;;
12145;SDS011;6136;47.032;15.398;2023-02-28T13:27:22;15.70;;;9.17;;
12145;SDS011;6136;47.032;15.398;2023-02-28T13:29:59;12.67;;;8.53;;
12145;SDS011;6136;47.032;15.398;2023-02-28T13:32:30;13.90;;;8.37;;
12145;SDS011;6136;47.032;15.398;2023-02-28T13:38:17;13.27;;;9.20;;
12145;SDS011;6136;47.032;15.398;2023-02-28T13:40:51;17.57;;;8.90;;
12145;SDS011;6136;47.032;15.398;2023-02-28T13:43:21;15.37;;;8.60;;
12145;SDS011;6136;47.032;15.398;2023-02-28T13:46:29;14.37;;;8.47;;
12145;SDS011;6136;47.032;15.398;2023-02-28T13:51:54;14.67;;;8.30;;
12145;SDS011;6136;47.032;15.398;2023-02-28T13:54:40;13.63;;;9.53;;
12145;SDS011;6136;47.032;15.398;2023-02-28T13:57:22;16.47;;;9.70;;
12145;SDS011;6136;47.032;15.398;2023-02-28T14:00:05;13.63;;;9.00;;
12145;SDS011;6136;47.032;15.398;2023-02-28T14:02:53;13.40;;;9.10;;
12145;SDS011;6136;47.032;15.398;2023-02-28T14:05:38;14.37;;;9.00;;
12145;SDS011;6136;47.032;15.398;2023-02-28T14:08:08;14.07;;;8.97;;
12145;SDS011;6136;47.032;15.398;2023-02-28T14:10:44;13.77;;;8.90;;
12145;SDS011;6136;47.032;15.398;2023-02-28T14:16:13;12.60;;;8.60;;
12145;SDS011;6136;47.032;15.398;2023-02-28T14:18:48;14.40;;;9.17;;
12145;SDS011;6136;47.032;15.398;2023-02-28T14:21:22;13.30;;;9.33;;
12145;SDS011;6136;47.032;15.398;2023-02-28T14:27:12;11.00;;;8.50;;
12145;SDS011;6136;47.032;15.398;2023-02-28T14:37:28;12.87;;;8.87;;
12145;SDS011;6136;47.032;15.398;2023-02-28T14:40:00;16.17;;;9.67;;
12145;SDS011;6136;47.032;15.398;2023-02-28T14:42:32;12.77;;;8.97;;
12145;SDS011;6136;47.032;15.398;2023-02-28T14:45:02;14.63;;;7.97;;
12145;SDS011;6136;47.032;15.398;2023-02-28T14:47:31;14.47;;;8.97;;
12145;SDS011;6136;47.032;15.398;2023-02-28T14:50:01;12.73;;;8.80;;
12145;SDS011;6136;47.032;15.398;2023-02-28T14:52:33;13.67;;;8.70;;
12145;SDS011;6136;47.032;15.398;2023-02-28T14:55:03;14.70;;;8.40;;
12145;SDS011;6136;47.032;15.398;2023-02-28T14:57:34;10.80;;;7.63;;
12145;SDS011;6136;47.032;15.398;2023-02-28T15:00:11;12.83;;;8.00;;
12145;SDS011;6136;47.032;15.398;2023-02-28T15:02:42;11.20;;;7.67;;
12145;SDS011;6136;47.032;15.398;2023-02-28T15:05:19;12.13;;;8.43;;
12145;SDS011;6136;47.032;15.398;2023-02-28T15:08:02;11.23;;;8.20;;
12145;SDS011;6136;47.032;15.398;2023-02-28T15:10:38;12.20;;;7.97;;
12145;SDS011;6136;47.032;15.398;2023-02-28T15:13:11;12.03;;;7.90;;
12145;SDS011;6136;47.032;15.398;2023-02-28T15:15:42;11.10;;;7.77;;
12145;SDS011;6136;47.032;15.398;2023-02-28T15:18:31;12.23;;;7.67;;
12145;SDS011;6136;47.032;15.398;2023-02-28T15:21:10;13.53;;;8.43;;
12145;SDS011;6136;47.032;15.398;2023-02-28T15:23:46;13.27;;;8.13;;
12145;SDS011;6136;47.032;15.398;2023-02-28T15:26:19;12.00;;;7.13;;
12145;SDS011;6136;47.032;15.398;2023-02-28T15:28:50;11.97;;;7.27;;
12145;SDS011;6136;47.032;15.398;2023-02-28T15:31:21;12.00;;;7.10;;
12145;SDS011;6136;47.032;15.398;2023-02-28T15:33:54;10.17;;;7.00;;
12145;SDS011;6136;47.032;15.398;2023-02-28T15:36:25;12.73;;;7.33;;
12145;SDS011;6136;47.032;15.398;2023-02-28T15:38:57;11.50;;;7.23;;
12145;SDS011;6136;47.032;15.398;2023-02-28T15:41:41;10.97;;;7.23;;
12145;SDS011;6136;47.032;15.398;2023-02-28T15:44:25;12.27;;;8.33;;
12145;SDS011;6136;47.032;15.398;2023-02-28T15:46:59;11.07;;;7.17;;
12145;SDS011;6136;47.032;15.398;2023-02-28T15:49:32;12.57;;;8.07;;
12145;SDS011;6136;47.032;15.398;2023-02-28T15:52:12;13.77;;;8.00;;
12145;SDS011;6136;47.032;15.398;2023-02-28T15:54:44;11.33;;;7.87;;
12145;SDS011;6136;47.032;15.398;2023-02-28T15:57:15;14.87;;;8.07;;
12145;SDS011;6136;47.032;15.398;2023-02-28T15:59:52;15.73;;;8.87;;